sensor_id;sensor_type;location;lat;lon;timestamp;P1;durP1;ratioP1;P2;durP2;ratioP2
53959;SDS011;39866;48.638;-2.020;2023-03-01T00:01:08;25.83;;;23.02;;
53959;SDS011;39866;48.638;-2.020;2023-03-01T00:03:37;24.90;;;22.30;;
53959;SDS011;39866;48.638;-2.020;2023-03-01T00:06:03;23.75;;;21.35;;
53959;SDS011;39866;48.638;-2.020;2023-03-01T00:08:29;22.63;;;20.35;;
53959;SDS011;39866;48.638;-2.020;2023-03-01T00:13:27;23.13;;;20.83;;
53959;SDS011;39866;48.638;-2.020;2023-03-01T00:15:52;21.65;;;19.35;;
53959;SDS011;39866;48.638;-2.020;2023-03-01T00:18:18;21.55;;;19.10;;
53959;SDS011;39866;48.638;-2.020;2023-03-01T00:20:49;21.30;;;19.10;;
53959;SDS011;39866;48.638;-2.020;2023-03-01T00:23:16;22.77;;;20.25;;
53959;SDS011;39866;48.638;-2.020;2023-03-01T00:25:42;21.77;;;19.48;;
53959;SDS011;39866;48.638;-2.020;2023-03-01T00:28:08;23.00;;;20.35;;
53959;SDS011;39866;48.638;-2.020;2023-03-01T00:30:33;21.65;;;19.35;;
53959;SDS011;39866;48.638;-2.020;2023-03-01T00:32:58;22.48;;;20.20;;
53959;SDS011;39866;48.638;-2.020;2023-03-01T00:35:23;23.35;;;20.95;;
53959;SDS011;39866;48.638;-2.020;2023-03-01T00:37:49;21.50;;;19.30;;
53959;SDS011;39866;48.638;-2.020;2023-03-01T00:40:22;22.00;;;19.77;;
53959;SDS011;39866;48.638;-2.020;2023-03-01T00:42:50;21.52;;;19.33;;
53959;SDS011;39866;48.638;-2.020;2023-03-01T00:45:15;22.65;;;20.08;;
53959;SDS011;39866;48.638;-2.020;2023-03-01T00:47:41;22.63;;;19.48;;
53959;SDS011;39866;48.638;-2.020;2023-03-01T00:50:06;20.35;;;18.20;;
53959;SDS011;39866;48.638;-2.020;2023-03-01T00:52:32;22.23;;;19.88;;
53959;SDS011;39866;48.638;-2.020;2023-03-01T00:54:57;20.73;;;18.52;;
53959;SDS011;39866;48.638;-2.020;2023-03-01T00:57:23;21.35;;;19.02;;
53959;SDS011;39866;48.638;-2.020;2023-03-01T00:59:48;21.35;;;19.15;;
53959;SDS011;39866;48.638;-2.020;2023-03-01T01:02:14;21.00;;;18.00;;
53959;SDS011;39866;48.638;-2.020;2023-03-01T01:04:39;21.27;;;19.15;;
53959;SDS011;39866;48.638;-2.020;2023-03-01T01:07:05;22.45;;;18.40;;
53959;SDS011;39866;48.638;-2.020;2023-03-01T01:09:30;20.67;;;18.48;;
53959;SDS011;39866;48.638;-2.020;2023-03-01T01:11:56;21.02;;;17.98;;
53959;SDS011;39866;48.638;-2.020;2023-03-01T01:14:21;21.35;;;19.00;;
53959;SDS011;39866;48.638;-2.020;2023-03-01T01:16:47;20.05;;;17.92;;
53959;SDS011;39866;48.638;-2.020;2023-03-01T01:19:13;20.58;;;17.77;;
53959;SDS011;39866;48.638;-2.020;2023-03-01T01:21:38;20.13;;;18.02;;
53959;SDS011;39866;48.638;-2.020;2023-03-01T01:24:04;22.40;;;18.80;;
53959;SDS011;39866;48.638;-2.020;2023-03-01T01:26:31;22.52;;;18.27;;
53959;SDS011;39866;48.638;-2.020;2023-03-01T01:28:58;19.40;;;17.40;;
53959;SDS011;39866;48.638;-2.020;2023-03-01T01:31:24;19.95;;;17.95;;
53959;SDS011;39866;48.638;-2.020;2023-03-01T01:33:53;19.98;;;17.60;;
53959;SDS011;39866;48.638;-2.020;2023-03-01T01:36:20;20.23;;;18.02;;
53959;SDS011;39866;48.638;-2.020;2023-03-01T01:38:46;20.23;;;18.08;;
53959;SDS011;39866;48.638;-2.020;2023-03-01T01:41:12;19.58;;;17.45;;
53959;SDS011;39866;48.638;-2.020;2023-03-01T01:43:42;19.63;;;17.65;;
53959;SDS011;39866;48.638;-2.020;2023-03-01T01:48:46;20.42;;;17.33;;
53959;SDS011;39866;48.638;-2.020;2023-03-01T01:51:17;19.38;;;17.40;;
53959;SDS011;39866;48.638;-2.020;2023-03-01T01:53:50;20.77;;;16.38;;
53959;SDS011;39866;48.638;-2.020;2023-03-01T01:56:20;17.88;;;15.98;;
53959;SDS011;39866;48.638;-2.020;2023-03-01T01:58:48;19.55;;;17.45;;
53959;SDS011;39866;48.638;-2.020;2023-03-01T02:01:15;18.67;;;16.75;;
53959;SDS011;39866;48.638;-2.020;2023-03-01T02:03:41;18.42;;;16.52;;
53959;SDS011;39866;48.638;-2.020;2023-03-01T02:08:35;18.42;;;16.52;;
53959;SDS011;39866;48.638;-2.020;2023-03-01T02:11:02;18.08;;;16.17;;
53959;SDS011;39866;48.638;-2.020;2023-03-01T02:13:31;17.65;;;15.85;;
53959;SDS011;39866;48.638;-2.020;2023-03-01T02:15:58;18.65;;;16.67;;
53959;SDS011;39866;48.638;-2.020;2023-03-01T02:18:24;19.13;;;17.23;;
53959;SDS011;39866;48.638;-2.020;2023-03-01T02:23:40;18.33;;;16.52;;
53959;SDS011;39866;48.638;-2.020;2023-03-01T02:26:07;18.08;;;15.77;;
53959;SDS011;39866;48.638;-2.020;2023-03-01T02:28:55;18.50;;;16.33;;
53959;SDS011;39866;48.638;-2.020;2023-03-01T02:31:20;18.60;;;16.65;;
53959;SDS011;39866;48.638;-2.020;2023-03-01T02:34:05;19.30;;;17.10;;
53959;SDS011;39866;48.638;-2.020;2023-03-01T02:36:34;18.52;;;16.63;;
53959;SDS011;39866;48.638;-2.020;2023-03-01T02:39:03;19.20;;;17.15;;
53959;SDS011;39866;48.638;-2.020;2023-03-01T02:41:31;20.30;;;17.10;;
53959;SDS011;39866;48.638;-2.020;2023-03-01T02:44:00;19.05;;;17.05;;
53959;SDS011;39866;48.638;-2.020;2023-03-01T02:46:27;19.45;;;17.10;;
53959;SDS011;39866;48.638;-2.020;2023-03-01T02:48:53;19.90;;;17.10;;
53959;SDS011;39866;48.638;-2.020;2023-03-01T02:56:38;18.38;;;16.45;;
53959;SDS011;39866;48.638;-2.020;2023-03-01T02:59:05;18.88;;;16.88;;
53959;SDS011;39866;48.638;-2.020;2023-03-01T03:01:31;19.60;;;17.58;;
53959;SDS011;39866;48.638;-2.020;2023-03-01T03:04:03;17.83;;;16.02;;
53959;SDS011;39866;48.638;-2.020;2023-03-01T03:06:29;18.50;;;16.27;;
53959;SDS011;39866;48.638;-2.020;2023-03-01T03:08:55;20.77;;;17.33;;
53959;SDS011;39866;48.638;-2.020;2023-03-01T03:11:20;18.70;;;16.33;;
53959;SDS011;39866;48.638;-2.020;2023-03-01T03:13:46;19.08;;;17.05;;
53959;SDS011;39866;48.638;-2.020;2023-03-01T03:16:13;19.17;;;16.30;;
53959;SDS011;39866;48.638;-2.020;2023-03-01T03:18:39;21.42;;;16.98;;
53959;SDS011;39866;48.638;-2.020;2023-03-01T03:21:07;18.35;;;15.80;;
53959;SDS011;39866;48.638;-2.020;2023-03-01T03:23:35;17.90;;;16.13;;
53959;SDS011;39866;48.638;-2.020;2023-03-01T03:26:01;18.52;;;16.63;;
53959;SDS011;39866;48.638;-2.020;2023-03-01T03:28:29;18.88;;;16.95;;
53959;SDS011;39866;48.638;-2.020;2023-03-01T03:30:58;17.42;;;15.57;;
53959;SDS011;39866;48.638;-2.020;2023-03-01T03:33:28;18.40;;;16.60;;
53959;SDS011;39866;48.638;-2.020;2023-03-01T03:35:53;18.00;;;16.20;;
53959;SDS011;39866;48.638;-2.020;2023-03-01T03:38:19;19.85;;;16.40;;
53959;SDS011;39866;48.638;-2.020;2023-03-01T03:41:08;18.08;;;16.20;;
53959;SDS011;39866;48.638;-2.020;2023-03-01T03:43:33;17.73;;;15.85;;
53959;SDS011;39866;48.638;-2.020;2023-03-01T03:46:01;18.05;;;16.17;;
53959;SDS011;39866;48.638;-2.020;2023-03-01T03:48:30;17.88;;;16.13;;
53959;SDS011;39866;48.638;-2.020;2023-03-01T03:50:58;20.27;;;16.42;;
53959;SDS011;39866;48.638;-2.020;2023-03-01T03:53:24;18.23;;;16.38;;
53959;SDS011;39866;48.638;-2.020;2023-03-01T03:55:51;17.23;;;14.75;;
53959;SDS011;39866;48.638;-2.020;2023-03-01T03:58:17;16.42;;;14.73;;
53959;SDS011;39866;48.638;-2.020;2023-03-01T04:00:45;22.00;;;16.25;;
53959;SDS011;39866;48.638;-2.020;2023-03-01T04:03:13;17.75;;;15.85;;
53959;SDS011;39866;48.638;-2.020;2023-03-01T04:05:40;17.05;;;15.30;;
53959;SDS011;39866;48.638;-2.020;2023-03-01T04:08:06;17.45;;;15.38;;
53959;SDS011;39866;48.638;-2.020;2023-03-01T04:10:37;18.63;;;15.32;;
53959;SDS011;39866;48.638;-2.020;2023-03-01T04:13:08;18.95;;;15.52;;
53959;SDS011;39866;48.638;-2.020;2023-03-01T04:15:36;21.95;;;15.73;;
53959;SDS011;39866;48.638;-2.020;2023-03-01T04:18:02;17.38;;;15.52;;
53959;SDS011;39866;48.638;-2.020;2023-03-01T04:20:29;17.67;;;15.88;;
53959;SDS011;39866;48.638;-2.020;2023-03-01T04:23:06;18.25;;;16.35;;
53959;SDS011;39866;48.638;-2.020;2023-03-01T04:25:55;18.35;;;16.55;;
53959;SDS011;39866;48.638;-2.020;2023-03-01T04:28:26;19.50;;;17.20;;
53959;SDS011;39866;48.638;-2.020;2023-03-01T04:30:55;19.92;;;17.40;;
53959;SDS011;39866;48.638;-2.020;2023-03-01T04:33:22;18.02;;;16.15;;
53959;SDS011;39866;48.638;-2.020;2023-03-01T04:35:49;17.17;;;15.35;;
53959;SDS011;39866;48.638;-2.020;2023-03-01T04:38:15;19.77;;;15.82;;
53959;SDS011;39866;48.638;-2.020;2023-03-01T04:40:41;16.48;;;14.77;;
53959;SDS011;39866;48.638;-2.020;2023-03-01T04:43:08;17.70;;;15.70;;
53959;SDS011;39866;48.638;-2.020;2023-03-01T04:45:34;18.90;;;16.70;;
53959;SDS011;39866;48.638;-2.020;2023-03-01T04:48:01;18.50;;;16.50;;
53959;SDS011;39866;48.638;-2.020;2023-03-01T04:50:26;16.45;;;14.70;;
53959;SDS011;39866;48.638;-2.020;2023-03-01T04:52:52;16.05;;;14.35;;
53959;SDS011;39866;48.638;-2.020;2023-03-01T04:55:18;17.83;;;15.60;;
53959;SDS011;39866;48.638;-2.020;2023-03-01T04:57:43;16.58;;;14.88;;
53959;SDS011;39866;48.638;-2.020;2023-03-01T05:00:09;17.40;;;15.13;;
53959;SDS011;39866;48.638;-2.020;2023-03-01T05:05:13;18.20;;;16.25;;
53959;SDS011;39866;48.638;-2.020;2023-03-01T05:07:39;17.08;;;15.27;;
53959;SDS011;39866;48.638;-2.020;2023-03-01T05:10:04;18.00;;;14.73;;
53959;SDS011;39866;48.638;-2.020;2023-03-01T05:12:29;16.33;;;14.70;;
53959;SDS011;39866;48.638;-2.020;2023-03-01T05:14:55;17.27;;;15.57;;
53959;SDS011;39866;48.638;-2.020;2023-03-01T05:17:20;18.05;;;14.68;;
53959;SDS011;39866;48.638;-2.020;2023-03-01T05:19:45;16.83;;;14.77;;
53959;SDS011;39866;48.638;-2.020;2023-03-01T05:22:11;16.90;;;13.77;;
53959;SDS011;39866;48.638;-2.020;2023-03-01T05:24:36;16.42;;;14.05;;
53959;SDS011;39866;48.638;-2.020;2023-03-01T05:27:03;15.85;;;14.15;;
53959;SDS011;39866;48.638;-2.020;2023-03-01T05:29:30;16.63;;;15.02;;
53959;SDS011;39866;48.638;-2.020;2023-03-01T05:31:58;17.92;;;14.20;;
53959;SDS011;39866;48.638;-2.020;2023-03-01T05:34:24;15.18;;;13.57;;
53959;SDS011;39866;48.638;-2.020;2023-03-01T05:36:51;16.98;;;14.82;;
53959;SDS011;39866;48.638;-2.020;2023-03-01T05:39:18;15.90;;;14.30;;
53959;SDS011;39866;48.638;-2.020;2023-03-01T05:41:46;14.88;;;13.27;;
53959;SDS011;39866;48.638;-2.020;2023-03-01T05:44:11;16.25;;;13.75;;
53959;SDS011;39866;48.638;-2.020;2023-03-01T05:46:37;16.45;;;14.63;;
53959;SDS011;39866;48.638;-2.020;2023-03-01T05:49:02;17.58;;;13.35;;
53959;SDS011;39866;48.638;-2.020;2023-03-01T05:51:29;17.17;;;13.82;;
53959;SDS011;39866;48.638;-2.020;2023-03-01T05:53:54;15.88;;;13.73;;
53959;SDS011;39866;48.638;-2.020;2023-03-01T05:56:20;16.83;;;14.23;;
53959;SDS011;39866;48.638;-2.020;2023-03-01T05:58:47;16.88;;;13.52;;
53959;SDS011;39866;48.638;-2.020;2023-03-01T06:01:14;15.13;;;13.45;;
53959;SDS011;39866;48.638;-2.020;2023-03-01T06:03:39;15.65;;;12.95;;
53959;SDS011;39866;48.638;-2.020;2023-03-01T06:06:05;16.00;;;12.93;;
53959;SDS011;39866;48.638;-2.020;2023-03-01T06:08:30;19.05;;;13.63;;
53959;SDS011;39866;48.638;-2.020;2023-03-01T06:10:55;17.77;;;13.73;;
53959;SDS011;39866;48.638;-2.020;2023-03-01T06:13:21;19.20;;;15.80;;
53959;SDS011;39866;48.638;-2.020;2023-03-01T06:15:48;15.35;;;12.73;;
53959;SDS011;39866;48.638;-2.020;2023-03-01T06:18:13;18.02;;;14.13;;
53959;SDS011;39866;48.638;-2.020;2023-03-01T06:20:39;16.65;;;14.25;;
53959;SDS011;39866;48.638;-2.020;2023-03-01T06:23:04;18.77;;;13.75;;
53959;SDS011;39866;48.638;-2.020;2023-03-01T06:25:29;17.10;;;14.75;;
53959;SDS011;39866;48.638;-2.020;2023-03-01T06:27:55;20.15;;;14.20;;
53959;SDS011;39866;48.638;-2.020;2023-03-01T06:30:22;16.23;;;14.52;;
53959;SDS011;39866;48.638;-2.020;2023-03-01T06:32:48;16.65;;;13.77;;
53959;SDS011;39866;48.638;-2.020;2023-03-01T06:35:14;17.55;;;14.23;;
53959;SDS011;39866;48.638;-2.020;2023-03-01T06:37:43;15.88;;;14.18;;
53959;SDS011;39866;48.638;-2.020;2023-03-01T06:40:09;16.92;;;13.88;;
53959;SDS011;39866;48.638;-2.020;2023-03-01T06:42:39;17.48;;;13.98;;
53959;SDS011;39866;48.638;-2.020;2023-03-01T06:45:06;16.50;;;13.85;;
53959;SDS011;39866;48.638;-2.020;2023-03-01T06:47:33;16.30;;;13.77;;
53959;SDS011;39866;48.638;-2.020;2023-03-01T06:49:59;18.50;;;13.60;;
53959;SDS011;39866;48.638;-2.020;2023-03-01T06:52:25;18.77;;;16.80;;
53959;SDS011;39866;48.638;-2.020;2023-03-01T06:54:50;17.77;;;15.38;;
53959;SDS011;39866;48.638;-2.020;2023-03-01T06:57:15;16.63;;;14.65;;
53959;SDS011;39866;48.638;-2.020;2023-03-01T06:59:41;16.67;;;13.88;;
53959;SDS011;39866;48.638;-2.020;2023-03-01T07:02:08;16.10;;;13.75;;
53959;SDS011;39866;48.638;-2.020;2023-03-01T07:04:37;16.63;;;13.25;;
53959;SDS011;39866;48.638;-2.020;2023-03-01T07:07:02;14.88;;;13.32;;
53959;SDS011;39866;48.638;-2.020;2023-03-01T07:09:28;19.05;;;14.82;;
53959;SDS011;39866;48.638;-2.020;2023-03-01T07:11:53;15.55;;;13.95;;
53959;SDS011;39866;48.638;-2.020;2023-03-01T07:14:19;16.20;;;14.50;;
53959;SDS011;39866;48.638;-2.020;2023-03-01T07:16:44;17.58;;;15.68;;
53959;SDS011;39866;48.638;-2.020;2023-03-01T07:19:10;18.23;;;15.63;;
53959;SDS011;39866;48.638;-2.020;2023-03-01T07:21:36;20.45;;;18.02;;
53959;SDS011;39866;48.638;-2.020;2023-03-01T07:24:03;24.95;;;17.13;;
53959;SDS011;39866;48.638;-2.020;2023-03-01T07:26:30;20.45;;;15.52;;
53959;SDS011;39866;48.638;-2.020;2023-03-01T07:28:58;20.80;;;15.88;;
53959;SDS011;39866;48.638;-2.020;2023-03-01T07:31:24;24.33;;;16.30;;
53959;SDS011;39866;48.638;-2.020;2023-03-01T07:33:52;22.92;;;16.50;;
53959;SDS011;39866;48.638;-2.020;2023-03-01T07:36:18;21.92;;;18.27;;
53959;SDS011;39866;48.638;-2.020;2023-03-01T07:38:43;22.35;;;18.08;;
53959;SDS011;39866;48.638;-2.020;2023-03-01T07:41:08;20.23;;;17.75;;
53959;SDS011;39866;48.638;-2.020;2023-03-01T07:43:34;21.80;;;17.08;;
53959;SDS011;39866;48.638;-2.020;2023-03-01T07:46:00;26.50;;;17.85;;
53959;SDS011;39866;48.638;-2.020;2023-03-01T07:48:26;21.38;;;16.60;;
53959;SDS011;39866;48.638;-2.020;2023-03-01T07:50:52;21.80;;;15.95;;
53959;SDS011;39866;48.638;-2.020;2023-03-01T07:53:17;19.77;;;15.48;;
53959;SDS011;39866;48.638;-2.020;2023-03-01T07:55:42;21.13;;;16.42;;
53959;SDS011;39866;48.638;-2.020;2023-03-01T07:58:08;20.05;;;16.05;;
53959;SDS011;39866;48.638;-2.020;2023-03-01T08:00:34;26.10;;;17.08;;
53959;SDS011;39866;48.638;-2.020;2023-03-01T08:03:00;21.35;;;15.48;;
53959;SDS011;39866;48.638;-2.020;2023-03-01T08:05:26;21.70;;;15.57;;
53959;SDS011;39866;48.638;-2.020;2023-03-01T08:07:52;19.15;;;15.73;;
53959;SDS011;39866;48.638;-2.020;2023-03-01T08:10:18;18.92;;;15.13;;
53959;SDS011;39866;48.638;-2.020;2023-03-01T08:12:43;17.58;;;15.63;;
53959;SDS011;39866;48.638;-2.020;2023-03-01T08:15:09;20.33;;;16.48;;
53959;SDS011;39866;48.638;-2.020;2023-03-01T08:17:35;22.33;;;16.98;;
53959;SDS011;39866;48.638;-2.020;2023-03-01T08:20:00;18.98;;;16.52;;
53959;SDS011;39866;48.638;-2.020;2023-03-01T08:22:25;23.60;;;17.67;;
53959;SDS011;39866;48.638;-2.020;2023-03-01T08:24:51;20.92;;;16.88;;
53959;SDS011;39866;48.638;-2.020;2023-03-01T08:27:16;18.88;;;16.85;;
53959;SDS011;39866;48.638;-2.020;2023-03-01T08:29:42;22.67;;;18.13;;
53959;SDS011;39866;48.638;-2.020;2023-03-01T08:32:07;23.35;;;19.02;;
53959;SDS011;39866;48.638;-2.020;2023-03-01T08:34:33;22.30;;;17.70;;
53959;SDS011;39866;48.638;-2.020;2023-03-01T08:37:00;25.20;;;20.15;;
53959;SDS011;39866;48.638;-2.020;2023-03-01T08:39:26;21.65;;;19.02;;
53959;SDS011;39866;48.638;-2.020;2023-03-01T08:41:51;24.00;;;20.52;;
53959;SDS011;39866;48.638;-2.020;2023-03-01T08:44:17;26.27;;;19.88;;
53959;SDS011;39866;48.638;-2.020;2023-03-01T08:46:42;34.08;;;20.95;;
53959;SDS011;39866;48.638;-2.020;2023-03-01T08:49:16;25.73;;;20.77;;
53959;SDS011;39866;48.638;-2.020;2023-03-01T08:51:43;26.75;;;20.70;;
53959;SDS011;39866;48.638;-2.020;2023-03-01T08:54:19;29.65;;;21.63;;
53959;SDS011;39866;48.638;-2.020;2023-03-01T08:56:46;24.48;;;21.60;;
53959;SDS011;39866;48.638;-2.020;2023-03-01T08:59:12;31.42;;;22.25;;
53959;SDS011;39866;48.638;-2.020;2023-03-01T09:01:38;26.75;;;21.30;;
53959;SDS011;39866;48.638;-2.020;2023-03-01T09:04:05;25.92;;;19.95;;
53959;SDS011;39866;48.638;-2.020;2023-03-01T09:06:33;26.02;;;20.88;;
53959;SDS011;39866;48.638;-2.020;2023-03-01T09:08:59;25.77;;;21.33;;
53959;SDS011;39866;48.638;-2.020;2023-03-01T09:11:24;26.90;;;21.08;;
53959;SDS011;39866;48.638;-2.020;2023-03-01T09:13:50;24.83;;;21.15;;
53959;SDS011;39866;48.638;-2.020;2023-03-01T09:16:16;30.48;;;22.17;;
53959;SDS011;39866;48.638;-2.020;2023-03-01T09:18:43;25.70;;;22.15;;
53959;SDS011;39866;48.638;-2.020;2023-03-01T09:21:10;29.27;;;21.42;;
53959;SDS011;39866;48.638;-2.020;2023-03-01T09:23:38;22.77;;;20.15;;
53959;SDS011;39866;48.638;-2.020;2023-03-01T09:26:09;27.50;;;21.73;;
53959;SDS011;39866;48.638;-2.020;2023-03-01T09:28:36;26.67;;;22.55;;
53959;SDS011;39866;48.638;-2.020;2023-03-01T09:31:03;31.77;;;22.50;;
53959;SDS011;39866;48.638;-2.020;2023-03-01T09:33:29;27.13;;;22.02;;
53959;SDS011;39866;48.638;-2.020;2023-03-01T09:36:02;26.90;;;22.17;;
53959;SDS011;39866;48.638;-2.020;2023-03-01T09:38:29;28.90;;;22.25;;
53959;SDS011;39866;48.638;-2.020;2023-03-01T09:40:55;30.60;;;23.77;;
53959;SDS011;39866;48.638;-2.020;2023-03-01T09:43:26;29.10;;;24.58;;
53959;SDS011;39866;48.638;-2.020;2023-03-01T09:46:00;30.05;;;23.08;;
53959;SDS011;39866;48.638;-2.020;2023-03-01T09:48:30;29.02;;;23.38;;
53959;SDS011;39866;48.638;-2.020;2023-03-01T09:51:02;29.55;;;24.38;;
53959;SDS011;39866;48.638;-2.020;2023-03-01T09:53:33;32.17;;;23.73;;
53959;SDS011;39866;48.638;-2.020;2023-03-01T10:01:48;29.25;;;22.73;;
53959;SDS011;39866;48.638;-2.020;2023-03-01T10:09:36;28.95;;;24.40;;
53959;SDS011;39866;48.638;-2.020;2023-03-01T10:12:04;27.30;;;23.48;;
53959;SDS011;39866;48.638;-2.020;2023-03-01T10:14:36;31.35;;;24.27;;
53959;SDS011;39866;48.638;-2.020;2023-03-01T10:19:54;29.75;;;24.05;;
53959;SDS011;39866;48.638;-2.020;2023-03-01T10:22:29;29.33;;;23.65;;
53959;SDS011;39866;48.638;-2.020;2023-03-01T10:24:59;26.48;;;23.60;;
53959;SDS011;39866;48.638;-2.020;2023-03-01T10:27:36;31.83;;;23.20;;
53959;SDS011;39866;48.638;-2.020;2023-03-01T10:30:32;28.60;;;23.20;;
53959;SDS011;39866;48.638;-2.020;2023-03-01T10:33:03;33.03;;;24.05;;
53959;SDS011;39866;48.638;-2.020;2023-03-01T10:35:38;30.67;;;22.58;;
53959;SDS011;39866;48.638;-2.020;2023-03-01T10:38:10;28.92;;;22.08;;
53959;SDS011;39866;48.638;-2.020;2023-03-01T10:43:23;28.17;;;22.13;;
53959;SDS011;39866;48.638;-2.020;2023-03-01T10:45:50;33.38;;;23.63;;
53959;SDS011;39866;48.638;-2.020;2023-03-01T10:48:17;27.77;;;22.70;;
53959;SDS011;39866;48.638;-2.020;2023-03-01T10:50:49;27.65;;;22.83;;
53959;SDS011;39866;48.638;-2.020;2023-03-01T10:53:33;26.20;;;21.58;;
53959;SDS011;39866;48.638;-2.020;2023-03-01T10:58:40;28.90;;;23.48;;
53959;SDS011;39866;48.638;-2.020;2023-03-01T11:01:26;25.73;;;21.75;;
53959;SDS011;39866;48.638;-2.020;2023-03-01T11:06:31;29.48;;;22.60;;
53959;SDS011;39866;48.638;-2.020;2023-03-01T11:09:20;29.92;;;23.77;;
53959;SDS011;39866;48.638;-2.020;2023-03-01T11:11:57;33.63;;;24.10;;
53959;SDS011;39866;48.638;-2.020;2023-03-01T11:15:15;32.95;;;24.35;;
53959;SDS011;39866;48.638;-2.020;2023-03-01T11:17:21;32.15;;;24.92;;
53959;SDS011;39866;48.638;-2.020;2023-03-01T11:22:29;35.22;;;26.05;;
53959;SDS011;39866;48.638;-2.020;2023-03-01T11:24:57;31.92;;;25.63;;
53959;SDS011;39866;48.638;-2.020;2023-03-01T11:30:05;39.17;;;28.08;;
53959;SDS011;39866;48.638;-2.020;2023-03-01T11:35:30;33.85;;;25.73;;
53959;SDS011;39866;48.638;-2.020;2023-03-01T11:40:27;33.35;;;22.95;;
53959;SDS011;39866;48.638;-2.020;2023-03-01T11:43:15;25.77;;;21.13;;
53959;SDS011;39866;48.638;-2.020;2023-03-01T11:51:09;28.52;;;22.27;;
53959;SDS011;39866;48.638;-2.020;2023-03-01T12:13:10;28.23;;;21.35;;
53959;SDS011;39866;48.638;-2.020;2023-03-01T12:23:54;30.35;;;20.90;;
53959;SDS011;39866;48.638;-2.020;2023-03-01T12:32:51;26.45;;;22.40;;
53959;SDS011;39866;48.638;-2.020;2023-03-01T12:38:41;25.15;;;21.08;;
53959;SDS011;39866;48.638;-2.020;2023-03-01T12:41:17;27.95;;;21.92;;
53959;SDS011;39866;48.638;-2.020;2023-03-01T12:49:09;28.55;;;21.45;;
53959;SDS011;39866;48.638;-2.020;2023-03-01T12:51:39;27.05;;;22.42;;
53959;SDS011;39866;48.638;-2.020;2023-03-01T12:54:49;26.35;;;21.98;;
53959;SDS011;39866;48.638;-2.020;2023-03-01T12:57:00;24.75;;;21.98;;
53959;SDS011;39866;48.638;-2.020;2023-03-01T13:05:07;22.63;;;20.27;;
53959;SDS011;39866;48.638;-2.020;2023-03-01T13:10:39;26.10;;;21.27;;
53959;SDS011;39866;48.638;-2.020;2023-03-01T13:13:13;22.25;;;19.55;;
53959;SDS011;39866;48.638;-2.020;2023-03-01T13:15:44;22.42;;;19.77;;
53959;SDS011;39866;48.638;-2.020;2023-03-01T13:23:12;20.38;;;18.25;;
53959;SDS011;39866;48.638;-2.020;2023-03-01T13:30:56;25.95;;;19.92;;
53959;SDS011;39866;48.638;-2.020;2023-03-01T13:35:54;26.08;;;19.95;;
53959;SDS011;39866;48.638;-2.020;2023-03-01T13:38:36;25.88;;;18.58;;
53959;SDS011;39866;48.638;-2.020;2023-03-01T13:41:03;27.63;;;19.05;;
53959;SDS011;39866;48.638;-2.020;2023-03-01T13:43:32;23.83;;;19.00;;
53959;SDS011;39866;48.638;-2.020;2023-03-01T13:46:02;29.05;;;18.58;;
53959;SDS011;39866;48.638;-2.020;2023-03-01T13:48:35;24.58;;;18.23;;
53959;SDS011;39866;48.638;-2.020;2023-03-01T13:51:04;21.30;;;18.50;;
53959;SDS011;39866;48.638;-2.020;2023-03-01T13:53:34;22.88;;;18.02;;
53959;SDS011;39866;48.638;-2.020;2023-03-01T13:56:18;21.50;;;17.52;;
53959;SDS011;39866;48.638;-2.020;2023-03-01T13:58:51;21.65;;;16.63;;
53959;SDS011;39866;48.638;-2.020;2023-03-01T14:01:26;20.08;;;17.00;;
53959;SDS011;39866;48.638;-2.020;2023-03-01T14:03:57;26.48;;;18.15;;
53959;SDS011;39866;48.638;-2.020;2023-03-01T14:06:27;20.58;;;16.80;;
53959;SDS011;39866;48.638;-2.020;2023-03-01T14:19:31;20.98;;;18.70;;
53959;SDS011;39866;48.638;-2.020;2023-03-01T14:22:04;22.77;;;17.70;;
53959;SDS011;39866;48.638;-2.020;2023-03-01T14:25:01;24.02;;;18.42;;
53959;SDS011;39866;48.638;-2.020;2023-03-01T14:27:31;20.70;;;17.55;;
53959;SDS011;39866;48.638;-2.020;2023-03-01T14:30:03;20.75;;;16.98;;
53959;SDS011;39866;48.638;-2.020;2023-03-01T14:32:35;19.83;;;17.63;;
53959;SDS011;39866;48.638;-2.020;2023-03-01T14:35:00;20.75;;;18.48;;
53959;SDS011;39866;48.638;-2.020;2023-03-01T14:37:30;20.83;;;18.08;;
53959;SDS011;39866;48.638;-2.020;2023-03-01T14:39:59;23.13;;;18.52;;
53959;SDS011;39866;48.638;-2.020;2023-03-01T14:42:27;21.52;;;17.95;;
53959;SDS011;39866;48.638;-2.020;2023-03-01T14:44:56;23.60;;;16.70;;
53959;SDS011;39866;48.638;-2.020;2023-03-01T14:50:03;19.85;;;15.10;;
53959;SDS011;39866;48.638;-2.020;2023-03-01T14:52:36;23.17;;;15.85;;
53959;SDS011;39866;48.638;-2.020;2023-03-01T14:55:05;22.73;;;15.60;;
53959;SDS011;39866;48.638;-2.020;2023-03-01T14:57:38;18.17;;;15.50;;
53959;SDS011;39866;48.638;-2.020;2023-03-01T15:00:10;25.90;;;15.85;;
53959;SDS011;39866;48.638;-2.020;2023-03-01T15:02:43;24.45;;;15.82;;
53959;SDS011;39866;48.638;-2.020;2023-03-01T15:05:13;21.30;;;15.05;;
53959;SDS011;39866;48.638;-2.020;2023-03-01T15:07:42;19.10;;;15.75;;
53959;SDS011;39866;48.638;-2.020;2023-03-01T15:10:24;20.75;;;15.30;;
53959;SDS011;39866;48.638;-2.020;2023-03-01T15:12:52;18.38;;;15.43;;
53959;SDS011;39866;48.638;-2.020;2023-03-01T15:15:19;20.30;;;15.30;;
53959;SDS011;39866;48.638;-2.020;2023-03-01T15:18:13;20.08;;;14.93;;
53959;SDS011;39866;48.638;-2.020;2023-03-01T15:20:41;18.88;;;14.25;;
53959;SDS011;39866;48.638;-2.020;2023-03-01T15:23:13;18.83;;;14.30;;
53959;SDS011;39866;48.638;-2.020;2023-03-01T15:25:53;21.95;;;14.63;;
53959;SDS011;39866;48.638;-2.020;2023-03-01T15:28:22;16.70;;;14.75;;
53959;SDS011;39866;48.638;-2.020;2023-03-01T15:31:24;21.40;;;15.43;;
53959;SDS011;39866;48.638;-2.020;2023-03-01T15:33:46;23.45;;;16.00;;
53959;SDS011;39866;48.638;-2.020;2023-03-01T15:41:55;17.20;;;14.95;;
53959;SDS011;39866;48.638;-2.020;2023-03-01T15:46:49;19.90;;;16.40;;
53959;SDS011;39866;48.638;-2.020;2023-03-01T15:52:04;18.17;;;16.05;;
53959;SDS011;39866;48.638;-2.020;2023-03-01T15:54:35;22.05;;;15.23;;
53959;SDS011;39866;48.638;-2.020;2023-03-01T15:57:02;22.20;;;15.05;;
53959;SDS011;39866;48.638;-2.020;2023-03-01T15:59:28;19.25;;;14.82;;
53959;SDS011;39866;48.638;-2.020;2023-03-01T16:01:53;27.05;;;13.15;;
53959;SDS011;39866;48.638;-2.020;2023-03-01T16:04:18;16.15;;;13.02;;
53959;SDS011;39866;48.638;-2.020;2023-03-01T16:06:48;17.40;;;12.90;;
53959;SDS011;39866;48.638;-2.020;2023-03-01T16:09:23;18.55;;;13.80;;
53959;SDS011;39866;48.638;-2.020;2023-03-01T16:11:50;18.80;;;14.07;;
53959;SDS011;39866;48.638;-2.020;2023-03-01T16:14:16;19.05;;;13.85;;
53959;SDS011;39866;48.638;-2.020;2023-03-01T16:16:43;22.00;;;14.30;;
53959;SDS011;39866;48.638;-2.020;2023-03-01T16:19:10;19.50;;;14.35;;
53959;SDS011;39866;48.638;-2.020;2023-03-01T16:21:36;17.88;;;14.52;;
53959;SDS011;39866;48.638;-2.020;2023-03-01T16:24:02;22.65;;;15.25;;
53959;SDS011;39866;48.638;-2.020;2023-03-01T16:26:28;22.85;;;14.57;;
53959;SDS011;39866;48.638;-2.020;2023-03-01T16:28:56;20.73;;;13.98;;
53959;SDS011;39866;48.638;-2.020;2023-03-01T16:31:23;18.80;;;13.55;;
53959;SDS011;39866;48.638;-2.020;2023-03-01T16:33:52;28.33;;;15.73;;
53959;SDS011;39866;48.638;-2.020;2023-03-01T16:36:19;22.45;;;14.57;;
53959;SDS011;39866;48.638;-2.020;2023-03-01T16:38:45;15.93;;;13.88;;
53959;SDS011;39866;48.638;-2.020;2023-03-01T16:41:12;21.20;;;13.80;;